EZY212 EGPH-EGAC
Flight info
| Callsign | EZY212 |
|---|---|
| Flight time | 0h 31m |
| Altitude | 20000 |
| Route | GOSAM P600 BLACA DCT MAGEE |
| Aircraft | A319/M-SDE3FGHIRWY/LB1 |
Departure
| Time | 2026-05-06 20:16 |
|---|---|
| Airport | Edinburgh Airport (EGPH) |
Arrival
| Time | 2026-05-06 20:48 |
|---|---|
| Airport | George Best Belfast City Airport (EGAC) |
| Time | Latitude | Longitude | Altitude | Speed | Heading |
|---|---|---|---|---|---|
| 2026-05-06 19:48 | 55.94938 | -3.36354 | 106 ft | 0 kts | 148° |
| 2026-05-06 20:03 | 55.94957 | -3.36375 | 105 ft | 4 kts | 148° |
| 2026-05-06 20:03 | 55.94980 | -3.36398 | 106 ft | 4 kts | 161° |
| 2026-05-06 20:03 | 55.95005 | -3.36404 | 107 ft | 4 kts | 201° |
| 2026-05-06 20:03 | 55.95017 | -3.36390 | 106 ft | 0 kts | 239° |
| 2026-05-06 20:06 | 55.95006 | -3.36421 | 104 ft | 5 kts | 239° |
| 2026-05-06 20:07 | 55.94980 | -3.36498 | 106 ft | 9 kts | 239° |
| 2026-05-06 20:07 | 55.94948 | -3.36595 | 105 ft | 9 kts | 239° |
| 2026-05-06 20:07 | 55.94912 | -3.36700 | 107 ft | 10 kts | 239° |
| 2026-05-06 20:07 | 55.94915 | -3.36821 | 106 ft | 12 kts | 309° |
| 2026-05-06 20:08 | 55.94903 | -3.36962 | 103 ft | 13 kts | 238° |
| 2026-05-06 20:08 | 55.94857 | -3.37094 | 105 ft | 13 kts | 239° |
| 2026-05-06 20:08 | 55.94807 | -3.37245 | 105 ft | 14 kts | 239° |
| 2026-05-06 20:08 | 55.94766 | -3.37367 | 108 ft | 9 kts | 239° |
| 2026-05-06 20:09 | 55.94728 | -3.37479 | 110 ft | 16 kts | 238° |
| 2026-05-06 20:09 | 55.94654 | -3.37695 | 113 ft | 21 kts | 239° |
| 2026-05-06 20:09 | 55.94580 | -3.37914 | 112 ft | 20 kts | 239° |
| 2026-05-06 20:09 | 55.94508 | -3.38125 | 111 ft | 20 kts | 239° |
| 2026-05-06 20:10 | 55.94438 | -3.38330 | 113 ft | 18 kts | 239° |
| 2026-05-06 20:10 | 55.94378 | -3.38510 | 115 ft | 16 kts | 238° |
| 2026-05-06 20:10 | 55.94344 | -3.38610 | 117 ft | 13 kts | 239° |
| 2026-05-06 20:10 | 55.94302 | -3.38733 | 119 ft | 11 kts | 239° |
| 2026-05-06 20:11 | 55.94282 | -3.38846 | 120 ft | 8 kts | 290° |
| 2026-05-06 20:11 | 55.94319 | -3.38899 | 119 ft | 3 kts | 328° |
| 2026-05-06 20:14 | 55.94330 | -3.38911 | 120 ft | 7 kts | 328° |
| 2026-05-06 20:14 | 55.94395 | -3.38969 | 117 ft | 12 kts | 353° |
| 2026-05-06 20:15 | 55.94430 | -3.38922 | 119 ft | 0 kts | 59° |
| 2026-05-06 20:15 | 55.94454 | -3.38852 | 117 ft | 32 kts | 58° |
| 2026-05-06 20:16 | 55.94715 | -3.38080 | 114 ft | 108 kts | 59° |
| 2026-05-06 20:16 | 55.95207 | -3.36625 | 197 ft | 155 kts | 60° |
| 2026-05-06 20:16 | 55.95761 | -3.35017 | 934 ft | 151 kts | 62° |
| 2026-05-06 20:16 | 55.96459 | -3.33558 | 1536 ft | 165 kts | 45° |
| 2026-05-06 20:17 | 55.97371 | -3.32117 | 1974 ft | 185 kts | 45° |
| 2026-05-06 20:17 | 55.98393 | -3.30519 | 2423 ft | 205 kts | 44° |
| 2026-05-06 20:17 | 55.99548 | -3.28790 | 2807 ft | 230 kts | 34° |
| 2026-05-06 20:17 | 56.01162 | -3.27976 | 3229 ft | 259 kts | 355° |
| 2026-05-06 20:18 | 56.02846 | -3.29175 | 4003 ft | 267 kts | 317° |
| 2026-05-06 20:18 | 56.03821 | -3.31926 | 5048 ft | 264 kts | 281° |
| 2026-05-06 20:18 | 56.03839 | -3.35187 | 5736 ft | 264 kts | 258° |
| 2026-05-06 20:18 | 56.03333 | -3.38319 | 5952 ft | 261 kts | 248° |
| 2026-05-06 20:19 | 56.02678 | -3.41329 | 6010 ft | 260 kts | 247° |
| 2026-05-06 20:19 | 56.02026 | -3.44354 | 6009 ft | 261 kts | 249° |
| 2026-05-06 20:19 | 56.01436 | -3.47376 | 6009 ft | 261 kts | 251° |
| 2026-05-06 20:19 | 56.00896 | -3.50475 | 6009 ft | 261 kts | 252° |
| 2026-05-06 20:20 | 56.00398 | -3.53600 | 6008 ft | 261 kts | 253° |
| 2026-05-06 20:20 | 55.99928 | -3.56741 | 6008 ft | 262 kts | 254° |
| 2026-05-06 20:20 | 55.99473 | -3.59885 | 6007 ft | 262 kts | 255° |
| 2026-05-06 20:20 | 55.99024 | -3.63033 | 6006 ft | 262 kts | 255° |
| 2026-05-06 20:21 | 55.98577 | -3.66181 | 6004 ft | 261 kts | 255° |
| 2026-05-06 20:21 | 55.98126 | -3.69322 | 6003 ft | 261 kts | 255° |
| 2026-05-06 20:21 | 55.97674 | -3.72467 | 6003 ft | 261 kts | 255° |
| 2026-05-06 20:21 | 55.97223 | -3.75610 | 5993 ft | 261 kts | 254° |
| 2026-05-06 20:22 | 55.96772 | -3.78750 | 5996 ft | 261 kts | 254° |
| 2026-05-06 20:22 | 55.96318 | -3.81890 | 5993 ft | 261 kts | 254° |
| 2026-05-06 20:22 | 55.95861 | -3.85030 | 5989 ft | 262 kts | 254° |
| 2026-05-06 20:22 | 55.95403 | -3.88175 | 5991 ft | 262 kts | 254° |
| 2026-05-06 20:23 | 55.94945 | -3.91318 | 6004 ft | 263 kts | 254° |
| 2026-05-06 20:23 | 55.94483 | -3.94497 | 6821 ft | 265 kts | 255° |
| 2026-05-06 20:23 | 55.93972 | -3.97669 | 7854 ft | 267 kts | 248° |
| 2026-05-06 20:23 | 55.93165 | -4.00665 | 8866 ft | 269 kts | 238° |
| 2026-05-06 20:24 | 55.92043 | -4.03358 | 9883 ft | 272 kts | 228° |
| 2026-05-06 20:24 | 55.90637 | -4.05673 | 10647 ft | 284 kts | 218° |
| 2026-05-06 20:24 | 55.88950 | -4.07769 | 11009 ft | 307 kts | 216° |
| 2026-05-06 20:24 | 55.87158 | -4.09952 | 11687 ft | 316 kts | 216° |
| 2026-05-06 20:25 | 55.85328 | -4.12179 | 12526 ft | 321 kts | 216° |
| 2026-05-06 20:25 | 55.83472 | -4.14437 | 13383 ft | 325 kts | 216° |
| 2026-05-06 20:25 | 55.81597 | -4.16720 | 14176 ft | 329 kts | 216° |
| 2026-05-06 20:25 | 55.79699 | -4.19029 | 14907 ft | 333 kts | 217° |
| 2026-05-06 20:26 | 55.77780 | -4.21369 | 15641 ft | 336 kts | 217° |
| 2026-05-06 20:26 | 55.75853 | -4.23751 | 16378 ft | 340 kts | 217° |
| 2026-05-06 20:26 | 55.73911 | -4.26175 | 17099 ft | 343 kts | 218° |
| 2026-05-06 20:26 | 55.71947 | -4.28632 | 17819 ft | 347 kts | 218° |
| 2026-05-06 20:27 | 55.69988 | -4.31080 | 18456 ft | 351 kts | 218° |
| 2026-05-06 20:27 | 55.67973 | -4.33585 | 19051 ft | 356 kts | 218° |
| 2026-05-06 20:27 | 55.65936 | -4.36105 | 19666 ft | 359 kts | 218° |
| 2026-05-06 20:27 | 55.63853 | -4.38675 | 19940 ft | 361 kts | 218° |
| 2026-05-06 20:28 | 55.61833 | -4.41160 | 20008 ft | 353 kts | 218° |
| 2026-05-06 20:28 | 55.59838 | -4.43611 | 20014 ft | 347 kts | 218° |
| 2026-05-06 20:28 | 55.57860 | -4.46043 | 20013 ft | 346 kts | 218° |
| 2026-05-06 20:28 | 55.55889 | -4.48466 | 20010 ft | 345 kts | 218° |
| 2026-05-06 20:29 | 55.53920 | -4.50886 | 20028 ft | 345 kts | 218° |
| 2026-05-06 20:29 | 55.51955 | -4.53299 | 20029 ft | 345 kts | 218° |
| 2026-05-06 20:29 | 55.49984 | -4.55717 | 20032 ft | 345 kts | 218° |
| 2026-05-06 20:29 | 55.48014 | -4.58126 | 20031 ft | 344 kts | 218° |
| 2026-05-06 20:30 | 55.46047 | -4.60526 | 20030 ft | 344 kts | 218° |
| 2026-05-06 20:30 | 55.42113 | -4.65321 | 19890 ft | 340 kts | 218° |
| 2026-05-06 20:30 | 55.40185 | -4.67663 | 19641 ft | 334 kts | 218° |
| 2026-05-06 20:31 | 55.38279 | -4.69978 | 19376 ft | 332 kts | 218° |
| 2026-05-06 20:31 | 55.36380 | -4.72280 | 19134 ft | 331 kts | 218° |
| 2026-05-06 20:31 | 55.34491 | -4.74564 | 18891 ft | 329 kts | 218° |
| 2026-05-06 20:31 | 55.32605 | -4.76844 | 18650 ft | 327 kts | 218° |
| 2026-05-06 20:32 | 55.30718 | -4.78936 | 18331 ft | 325 kts | 211° |
| 2026-05-06 20:32 | 55.28699 | -4.80723 | 17885 ft | 324 kts | 210° |
| 2026-05-06 20:32 | 55.26692 | -4.82492 | 17482 ft | 322 kts | 210° |
| 2026-05-06 20:32 | 55.24698 | -4.84246 | 17069 ft | 320 kts | 210° |
| 2026-05-06 20:33 | 55.22715 | -4.85982 | 16667 ft | 318 kts | 210° |
| 2026-05-06 20:33 | 55.20744 | -4.87702 | 16272 ft | 316 kts | 210° |
| 2026-05-06 20:33 | 55.18780 | -4.89418 | 15882 ft | 315 kts | 210° |
| 2026-05-06 20:33 | 55.16826 | -4.91130 | 15499 ft | 313 kts | 210° |
| 2026-05-06 20:34 | 55.14884 | -4.92831 | 15120 ft | 311 kts | 209° |
| 2026-05-06 20:34 | 55.12951 | -4.94521 | 14736 ft | 310 kts | 209° |
| 2026-05-06 20:34 | 55.11029 | -4.96198 | 14355 ft | 308 kts | 209° |
| 2026-05-06 20:34 | 55.09112 | -4.97873 | 13962 ft | 307 kts | 209° |
| 2026-05-06 20:35 | 55.07201 | -4.99537 | 13554 ft | 306 kts | 209° |
| 2026-05-06 20:35 | 55.05301 | -5.01187 | 13168 ft | 304 kts | 209° |
| 2026-05-06 20:35 | 55.03414 | -5.02827 | 12781 ft | 302 kts | 209° |
| 2026-05-06 20:35 | 55.01541 | -5.04458 | 12395 ft | 300 kts | 209° |
| 2026-05-06 20:36 | 54.99683 | -5.06074 | 12008 ft | 298 kts | 208° |
| 2026-05-06 20:36 | 54.97832 | -5.07678 | 11624 ft | 296 kts | 208° |
| 2026-05-06 20:36 | 54.95996 | -5.09263 | 11247 ft | 294 kts | 208° |
| 2026-05-06 20:36 | 54.94168 | -5.10841 | 10852 ft | 293 kts | 208° |
| 2026-05-06 20:37 | 54.92348 | -5.12410 | 10461 ft | 291 kts | 208° |
| 2026-05-06 20:37 | 54.90543 | -5.13991 | 10101 ft | 288 kts | 212° |
| 2026-05-06 20:37 | 54.88988 | -5.16066 | 9873 ft | 279 kts | 227° |
| 2026-05-06 20:37 | 54.87858 | -5.18692 | 9563 ft | 276 kts | 242° |
| 2026-05-06 20:38 | 54.87132 | -5.21784 | 9101 ft | 276 kts | 251° |
| 2026-05-06 20:38 | 54.86508 | -5.24948 | 8595 ft | 277 kts | 251° |
| 2026-05-06 20:38 | 54.85878 | -5.28071 | 8314 ft | 271 kts | 250° |
| 2026-05-06 20:38 | 54.85253 | -5.31139 | 7742 ft | 272 kts | 250° |
| 2026-05-06 20:39 | 54.84605 | -5.34305 | 6627 ft | 286 kts | 249° |
| 2026-05-06 20:39 | 54.83922 | -5.37636 | 5341 ft | 300 kts | 249° |
| 2026-05-06 20:39 | 54.83206 | -5.41113 | 3941 ft | 313 kts | 249° |
| 2026-05-06 20:39 | 54.82465 | -5.44714 | 2790 ft | 317 kts | 249° |
| 2026-05-06 20:40 | 54.81749 | -5.48210 | 2312 ft | 296 kts | 249° |
| 2026-05-06 20:40 | 54.81092 | -5.51424 | 2136 ft | 269 kts | 248° |
| 2026-05-06 20:40 | 54.80496 | -5.54343 | 2014 ft | 245 kts | 248° |
| 2026-05-06 20:40 | 54.79958 | -5.56978 | 1999 ft | 219 kts | 248° |
| 2026-05-06 20:41 | 54.79474 | -5.59342 | 1991 ft | 198 kts | 247° |
| 2026-05-06 20:41 | 54.78981 | -5.61412 | 2016 ft | 174 kts | 238° |
| 2026-05-06 20:41 | 54.78422 | -5.63093 | 2013 ft | 148 kts | 236° |
| 2026-05-06 20:41 | 54.77945 | -5.64554 | 2003 ft | 133 kts | 237° |
| 2026-05-06 20:42 | 54.77499 | -5.65915 | 2001 ft | 128 kts | 236° |
| 2026-05-06 20:42 | 54.77061 | -5.67248 | 2005 ft | 127 kts | 236° |
| 2026-05-06 20:42 | 54.76629 | -5.68564 | 2007 ft | 126 kts | 236° |
| 2026-05-06 20:42 | 54.76121 | -5.69767 | 2000 ft | 124 kts | 214° |
| 2026-05-06 20:43 | 54.75436 | -5.70671 | 2009 ft | 124 kts | 216° |
| 2026-05-06 20:43 | 54.74767 | -5.71570 | 2009 ft | 123 kts | 214° |
| 2026-05-06 20:43 | 54.74076 | -5.72455 | 2010 ft | 124 kts | 213° |
| 2026-05-06 20:43 | 54.73379 | -5.73322 | 2007 ft | 124 kts | 213° |
| 2026-05-06 20:44 | 54.72679 | -5.74182 | 2010 ft | 124 kts | 213° |
| 2026-05-06 20:44 | 54.71973 | -5.75040 | 2008 ft | 124 kts | 212° |
| 2026-05-06 20:44 | 54.71269 | -5.75891 | 2008 ft | 123 kts | 212° |
| 2026-05-06 20:44 | 54.70565 | -5.76741 | 1946 ft | 123 kts | 213° |
| 2026-05-06 20:45 | 54.69862 | -5.77588 | 1823 ft | 123 kts | 212° |
| 2026-05-06 20:45 | 54.69159 | -5.78434 | 1686 ft | 123 kts | 212° |
| 2026-05-06 20:45 | 54.68456 | -5.79279 | 1512 ft | 123 kts | 212° |
| 2026-05-06 20:45 | 54.67755 | -5.80122 | 1339 ft | 123 kts | 212° |
| 2026-05-06 20:46 | 54.67053 | -5.80964 | 1163 ft | 122 kts | 211° |
| 2026-05-06 20:46 | 54.66349 | -5.81809 | 1000 ft | 123 kts | 211° |
| 2026-05-06 20:46 | 54.65647 | -5.82652 | 813 ft | 124 kts | 213° |
| 2026-05-06 20:46 | 54.64926 | -5.83506 | 651 ft | 127 kts | 213° |
| 2026-05-06 20:47 | 54.64196 | -5.84387 | 474 ft | 125 kts | 214° |
| 2026-05-06 20:47 | 54.63474 | -5.85270 | 303 ft | 130 kts | 215° |
| 2026-05-06 20:47 | 54.62712 | -5.86174 | 121 ft | 130 kts | 213° |
| 2026-05-06 20:47 | 54.62032 | -5.86984 | 20 ft | 90 kts | 214° |
| 2026-05-06 20:48 | 54.61862 | -5.87178 | 21 ft | 1 kts | 192° |
| 2026-05-06 20:48 | 54.61816 | -5.87137 | 22 ft | 18 kts | 131° |
| 2026-05-06 20:48 | 54.61784 | -5.87045 | 22 ft | 2 kts | 122° |
| 2026-05-06 20:48 | 54.61753 | -5.86992 | 21 ft | 8 kts | 151° |
| 2026-05-06 20:49 | 54.61704 | -5.87012 | 21 ft | 8 kts | 211° |
| 2026-05-06 20:49 | 54.61654 | -5.87071 | 21 ft | 9 kts | 214° |
| 2026-05-06 20:49 | 54.61599 | -5.87140 | 21 ft | 10 kts | 217° |
| 2026-05-06 20:49 | 54.61538 | -5.87213 | 21 ft | 11 kts | 216° |
| 2026-05-06 20:50 | 54.61473 | -5.87294 | 22 ft | 12 kts | 216° |
| 2026-05-06 20:50 | 54.61420 | -5.87347 | 21 ft | 8 kts | 187° |
| 2026-05-06 20:50 | 54.61392 | -5.87315 | 21 ft | 3 kts | 129° |
| 2026-05-06 20:50 | 54.61386 | -5.87301 | 21 ft | 0 kts | 124° |